Time;durP1;ratioP1;P1;durP2;ratioP2;P2;SDS_P1;SDS_P2;PMS_P1;PMS_P2;Temp;Humidity;BMP_temperature;BMP_pressure;BME280_temperature;BME280_humidity;BME280_pressure;Samples;Min_cycle;Max_cycle;Signal;HPM_P1;HPM_P2
2023/05/27 00:02:10;;;;;;;8.40;4.13;;;;;;;20.90;47.04;103151.25;5002907;28;20139;-33
2023/05/27 00:04:37;;;;;;;10.13;4.97;;;;;;;20.89;47.44;103144.09;5007583;28;20046;-32
2023/05/27 00:07:03;;;;;;;10.98;4.80;;;;;;;20.89;47.11;103149.50;5005171;28;20066;-32
2023/05/27 00:09:30;;;;;;;9.27;4.45;;;;;;;20.88;47.68;103152.31;5011200;28;20527;-32
2023/05/27 00:11:57;;;;;;;10.27;4.85;;;;;;;20.87;47.16;103147.91;5004489;28;20433;-33
2023/05/27 00:14:24;;;;;;;9.48;4.20;;;;;;;20.86;47.76;103144.34;5002887;28;20046;-33
2023/05/27 00:16:51;;;;;;;8.27;3.97;;;;;;;20.85;47.29;103152.56;5001915;28;20441;-33
2023/05/27 00:19:18;;;;;;;9.90;4.63;;;;;;;20.83;47.28;103143.75;5007218;28;20045;-32
2023/05/27 00:21:44;;;;;;;7.28;3.80;;;;;;;20.82;47.83;103144.69;5008841;28;20053;-32
2023/05/27 00:24:11;;;;;;;8.75;4.47;;;;;;;20.81;47.37;103135.75;5009575;28;20054;-32
2023/05/27 00:26:39;;;;;;;8.55;4.43;;;;;;;20.80;47.88;103128.66;5003009;28;20331;-32
2023/05/27 00:29:05;;;;;;;9.90;4.68;;;;;;;20.81;47.85;103132.19;5001303;28;20041;-32
2023/05/27 00:31:32;;;;;;;11.68;4.75;;;;;;;20.79;47.20;103132.31;5000779;28;20085;-33
2023/05/27 00:33:59;;;;;;;9.20;4.40;;;;;;;20.78;47.83;103125.19;5007139;28;20091;-33
2023/05/27 00:36:25;;;;;;;7.82;4.20;;;;;;;20.78;47.49;103124.34;5002361;28;20518;-32
2023/05/27 00:38:52;;;;;;;10.55;3.92;;;;;;;20.76;47.73;103115.53;5004466;28;20053;-32
2023/05/27 00:41:19;;;;;;;10.27;4.20;;;;;;;20.75;47.51;103124.59;5002121;28;20073;-32
2023/05/27 00:43:46;;;;;;;9.38;4.57;;;;;;;20.74;47.45;103121.00;5002666;28;20159;-32
2023/05/27 00:46:13;;;;;;;7.60;4.05;;;;;;;20.72;47.35;103112.19;5005803;28;20049;-32
2023/05/27 00:48:40;;;;;;;8.57;4.60;;;;;;;20.70;47.94;103120.41;5002872;28;20136;-32
2023/05/27 00:51:06;;;;;;;8.25;3.65;;;;;;;20.68;47.50;103108.88;5001071;28;20055;-32
2023/05/27 00:53:40;;;;;;;7.28;4.28;;;;;;;20.68;47.60;103108.88;4999996;28;20054;-33
2023/05/27 00:56:10;;;;;;;9.30;3.97;;;;;;;20.68;47.47;103113.41;5000694;28;20125;-33
2023/05/27 00:58:37;;;;;;;8.73;3.75;;;;;;;20.66;47.69;103113.53;4997866;28;20479;-32
2023/05/27 01:01:04;;;;;;;7.55;3.83;;;;;;;20.66;47.72;103115.34;5004529;28;20050;-32
2023/05/27 01:03:33;;;;;;;5.45;3.10;;;;;;;20.63;47.83;103119.16;4999936;28;20050;-33
2023/05/27 01:06:24;;;;;;;7.40;3.75;;;;;;;20.63;48.10;103127.22;5004667;28;20046;-33
2023/05/27 01:09:06;;;;;;;7.70;3.42;;;;;;;20.63;47.87;103123.69;5000742;28;20054;-33
2023/05/27 01:11:44;;;;;;;7.68;3.85;;;;;;;20.62;47.93;103113.84;4998265;28;20099;-32
2023/05/27 01:14:14;;;;;;;5.72;2.72;;;;;;;20.62;47.56;103112.03;5003190;28;20049;-32
2023/05/27 01:16:46;;;;;;;9.63;3.75;;;;;;;20.61;48.22;103118.38;4999621;28;20469;-32
2023/05/27 01:19:24;;;;;;;6.28;3.33;;;;;;;20.60;47.83;103116.69;5000484;28;20566;-32
2023/05/27 01:21:53;;;;;;;7.35;3.47;;;;;;;20.60;47.41;103118.50;5001729;28;20120;-32
2023/05/27 01:24:20;;;;;;;7.50;3.50;;;;;;;20.59;47.42;103117.66;5005872;28;20050;-33
2023/05/27 01:26:46;;;;;;;6.90;3.38;;;;;;;20.58;48.06;103115.94;4999263;28;20427;-33
2023/05/27 01:29:13;;;;;;;6.38;3.53;;;;;;;20.57;48.05;103114.19;5003685;28;20125;-33
2023/05/27 01:31:49;;;;;;;5.55;2.80;;;;;;;20.55;47.60;103101.84;5001644;28;20565;-32
2023/05/27 01:34:24;;;;;;;7.32;3.88;;;;;;;20.54;47.78;103106.34;4998742;28;20042;-32
2023/05/27 01:37:04;;;;;;;6.35;3.03;;;;;;;20.54;47.94;103106.34;5005148;28;20065;-33
2023/05/27 01:39:32;;;;;;;7.38;3.83;;;;;;;20.55;47.57;103109.91;5002473;28;20050;-32
2023/05/27 01:42:01;;;;;;;6.90;3.63;;;;;;;20.53;48.00;103103.78;5002655;28;20062;-32
2023/05/27 01:44:30;;;;;;;6.85;3.60;;;;;;;20.52;47.96;103111.00;4999353;28;20333;-32
2023/05/27 01:47:01;;;;;;;7.82;3.15;;;;;;;20.52;48.08;103111.00;5002115;28;20046;-32
2023/05/27 01:49:29;;;;;;;6.75;3.13;;;;;;;20.52;47.88;103113.69;5001648;28;20293;-32
2023/05/27 01:51:56;;;;;;;7.03;2.90;;;;;;;20.51;47.76;103116.50;5006227;28;20050;-32
2023/05/27 01:54:23;;;;;;;7.60;3.58;;;;;;;20.50;47.65;103114.78;5003390;28;20077;-32
2023/05/27 01:56:49;;;;;;;7.22;2.95;;;;;;;20.49;47.56;103113.06;5003049;28;20054;-32
2023/05/27 01:59:16;;;;;;;6.68;3.15;;;;;;;20.48;48.29;103122.94;4999124;28;20054;-32
2023/05/27 02:01:42;;;;;;;8.80;3.17;;;;;;;20.47;47.65;103115.84;5004764;28;20108;-32
2023/05/27 02:04:09;;;;;;;8.52;3.08;;;;;;;20.45;47.71;103115.94;5002184;28;20132;-32
2023/05/27 02:06:36;;;;;;;8.02;3.05;;;;;;;20.44;47.67;103121.47;5001056;28;20271;-32
2023/05/27 02:09:04;;;;;;;7.80;3.50;;;;;;;20.44;47.58;103111.53;5000038;28;20045;-32
2023/05/27 02:11:30;;;;;;;8.43;3.47;;;;;;;20.43;47.70;103108.97;5000701;28;20058;-32
2023/05/27 02:13:57;;;;;;;7.85;3.05;;;;;;;20.41;48.24;103111.75;4999238;28;20042;-32
2023/05/27 02:16:24;;;;;;;6.53;2.90;;;;;;;20.39;47.64;103113.72;5001783;28;20047;-32
2023/05/27 02:18:51;;;;;;;5.13;2.72;;;;;;;20.39;48.31;103102.09;4997390;28;20442;-33
2023/05/27 02:21:17;;;;;;;7.90;3.22;;;;;;;20.39;48.43;103104.78;5001201;28;20425;-34
2023/05/27 02:23:44;;;;;;;6.50;2.97;;;;;;;20.37;48.46;103099.50;4999822;28;20045;-33
2023/05/27 02:26:11;;;;;;;4.43;2.83;;;;;;;20.37;48.35;103101.34;4998021;28;20049;-34
2023/05/27 02:28:37;;;;;;;6.93;3.08;;;;;;;20.36;48.00;103103.16;5001304;28;20041;-32
2023/05/27 02:31:04;;;;;;;5.25;2.58;;;;;;;20.34;48.17;103099.75;4999714;28;20050;-32
2023/05/27 02:33:31;;;;;;;6.38;2.97;;;;;;;20.35;48.21;103106.00;5002376;28;20046;-32
2023/05/27 02:35:57;;;;;;;3.72;2.20;;;;;;;20.33;47.98;103098.00;5006643;28;20316;-32
2023/05/27 02:38:24;;;;;;;5.10;2.42;;;;;;;20.33;47.89;103102.53;5009553;28;20109;-32
2023/05/27 02:40:51;;;;;;;7.45;2.53;;;;;;;20.32;48.42;103106.22;5004596;28;20426;-32
2023/05/27 02:43:18;;;;;;;3.95;2.53;;;;;;;20.31;48.42;103102.66;5000670;28;20404;-32
2023/05/27 02:45:44;;;;;;;7.20;2.60;;;;;;;20.30;48.45;103097.38;5003306;28;20346;-32
2023/05/27 02:48:11;;;;;;;6.00;2.20;;;;;;;20.29;48.23;103098.34;5002058;28;20050;-32
2023/05/27 02:50:37;;;;;;;7.28;2.58;;;;;;;20.28;48.38;103096.63;5006306;28;20050;-32
2023/05/27 02:53:04;;;;;;;5.30;2.15;;;;;;;20.27;48.53;103101.16;5008674;28;20046;-32
2023/05/27 02:55:31;;;;;;;5.90;2.50;;;;;;;20.28;48.13;103102.03;5000505;28;20092;-32
2023/05/27 02:57:57;;;;;;;5.80;2.50;;;;;;;20.25;47.86;103089.63;5002242;28;20054;-32
2023/05/27 03:00:24;;;;;;;5.07;2.47;;;;;;;20.26;48.04;103093.19;5003139;28;20046;-32
2023/05/27 03:02:51;;;;;;;6.82;2.60;;;;;;;20.24;48.04;103090.63;5005150;28;20058;-32
2023/05/27 03:05:18;;;;;;;6.90;2.50;;;;;;;20.22;47.93;103095.22;5010256;28;20049;-32
2023/05/27 03:07:45;;;;;;;6.05;2.17;;;;;;;20.23;47.90;103104.19;5012460;28;20049;-32
2023/05/27 03:10:11;;;;;;;7.88;2.33;;;;;;;20.23;48.46;103098.81;5005703;28;20104;-32
2023/05/27 03:12:38;;;;;;;5.80;2.75;;;;;;;20.21;47.89;103099.75;5006527;28;20082;-33
2023/05/27 03:15:05;;;;;;;5.03;2.20;;;;;;;20.21;47.93;103104.28;5005766;28;20096;-32
2023/05/27 03:17:36;;;;;;;4.95;2.55;;;;;;;20.20;48.37;103106.13;4999374;28;20057;-31
2023/05/27 03:20:06;;;;;;;7.10;2.40;;;;;;;20.20;48.36;103114.22;5002889;28;20108;-31
2023/05/27 03:22:35;;;;;;;4.20;2.08;;;;;;;20.20;48.39;103113.34;5008875;28;20057;-31
2023/05/27 03:25:02;;;;;;;5.25;3.00;;;;;;;20.18;47.92;103110.78;5005783;28;20050;-32
2023/05/27 03:27:29;;;;;;;5.47;2.38;;;;;;;20.18;48.17;103109.91;5002562;28;20085;-32
2023/05/27 03:29:56;;;;;;;5.28;2.75;;;;;;;20.17;48.39;103110.88;5002919;28;20100;-31
2023/05/27 03:32:22;;;;;;;5.05;1.95;;;;;;;20.16;48.48;103101.94;5003397;28;20050;-32
2023/05/27 03:34:49;;;;;;;6.38;2.45;;;;;;;20.16;47.65;103093.88;5001985;28;20137;-31
2023/05/27 03:37:16;;;;;;;3.65;2.20;;;;;;;20.15;48.36;103096.69;5000450;28;20050;-31
2023/05/27 03:39:42;;;;;;;4.75;2.00;;;;;;;20.15;48.08;103094.84;5001186;28;20065;-32
2023/05/27 03:42:09;;;;;;;4.65;1.95;;;;;;;20.14;47.93;103098.53;4999981;28;20049;-32
2023/05/27 03:44:36;;;;;;;4.82;2.00;;;;;;;20.13;48.42;103088.69;4998083;28;20054;-31
2023/05/27 03:47:03;;;;;;;4.60;1.95;;;;;;;20.13;48.50;103094.09;5005964;28;20150;-32
2023/05/27 03:49:29;;;;;;;3.85;1.73;;;;;;;20.12;47.99;103089.69;5003098;28;20160;-32
2023/05/27 03:51:56;;;;;;;3.53;2.00;;;;;;;20.12;48.29;103091.53;5006323;28;20046;-33
2023/05/27 03:54:23;;;;;;;6.95;2.50;;;;;;;20.11;48.42;103085.28;5005906;28;20497;-32
2023/05/27 03:56:50;;;;;;;5.32;1.92;;;;;;;20.11;48.08;103082.59;5002060;28;20149;-32
2023/05/27 03:59:20;;;;;;;5.38;1.90;;;;;;;20.10;48.00;103083.56;5002011;28;20041;-32
2023/05/27 04:01:47;;;;;;;6.25;2.30;;;;;;;20.10;48.13;103088.94;5004039;28;20100;-32
2023/05/27 04:04:14;;;;;;;5.22;2.08;;;;;;;20.10;48.68;103080.00;4999386;28;20084;-32
2023/05/27 04:06:41;;;;;;;5.93;2.38;;;;;;;20.10;48.72;103082.69;5004693;28;20104;-31
2023/05/27 04:09:08;;;;;;;5.65;2.10;;;;;;;20.10;48.49;103088.06;5010444;28;20049;-32
2023/05/27 04:11:35;;;;;;;5.00;2.10;;;;;;;20.09;48.01;103084.50;5005496;28;20071;-31
2023/05/27 04:14:01;;;;;;;4.43;1.90;;;;;;;20.11;48.20;103081.72;5005590;28;20041;-32
2023/05/27 04:16:30;;;;;;;5.32;2.35;;;;;;;20.10;48.56;103075.50;4999877;28;20054;-32
2023/05/27 04:18:58;;;;;;;5.50;1.92;;;;;;;20.09;47.86;103072.88;5003249;28;20046;-32
2023/05/27 04:21:24;;;;;;;3.58;1.70;;;;;;;20.10;48.26;103074.59;5006039;28;20131;-31
2023/05/27 04:23:51;;;;;;;5.20;1.80;;;;;;;20.10;48.08;103074.59;5010020;28;20392;-32
2023/05/27 04:26:18;;;;;;;4.20;2.67;;;;;;;20.10;48.29;103085.38;5008164;28;20045;-32
2023/05/27 04:28:45;;;;;;;5.78;1.80;;;;;;;20.10;48.17;103074.59;5004688;28;20234;-31
2023/05/27 04:31:13;;;;;;;4.80;2.10;;;;;;;20.09;48.61;103081.81;5004573;28;20081;-31
2023/05/27 04:33:39;;;;;;;4.47;1.88;;;;;;;20.09;48.62;103073.75;5010193;28;20252;-31
2023/05/27 04:36:07;;;;;;;5.28;1.77;;;;;;;20.09;48.32;103076.44;5005530;28;20054;-32
2023/05/27 04:38:34;;;;;;;5.22;1.90;;;;;;;20.10;48.05;103078.19;5006606;28;20101;-31
2023/05/27 04:41:01;;;;;;;3.88;2.03;;;;;;;20.10;47.98;103078.19;5002698;28;20165;-31
2023/05/27 04:43:29;;;;;;;3.72;2.08;;;;;;;20.10;48.51;103075.50;4999346;28;20101;-32
2023/05/27 04:45:59;;;;;;;4.05;1.98;;;;;;;20.11;48.43;103069.13;5004273;28;20473;-32
2023/05/27 04:48:26;;;;;;;5.22;1.95;;;;;;;20.12;48.42;103069.97;5002945;28;20690;-32
2023/05/27 04:50:53;;;;;;;4.15;1.70;;;;;;;20.14;47.99;103071.59;5005817;28;20050;-32
2023/05/27 04:53:21;;;;;;;6.63;2.00;;;;;;;20.16;48.40;103080.41;5001994;28;20076;-32
2023/05/27 04:55:47;;;;;;;4.93;1.70;;;;;;;20.17;47.90;103076.72;5001458;28;20042;-32
2023/05/27 04:58:15;;;;;;;4.13;1.38;;;;;;;20.19;47.81;103073.94;5001178;28;20128;-33
2023/05/27 05:03:22;;;;;;;3.40;2.03;;;;;;;20.21;48.47;103064.75;5001453;28;20398;-32
2023/05/27 05:05:53;;;;;;;5.70;2.30;;;;;;;20.24;48.23;103077.16;5002198;28;20149;-34
2023/05/27 05:08:20;;;;;;;4.15;1.73;;;;;;;20.25;47.55;103068.09;5003445;28;20053;-32
2023/05/27 05:10:48;;;;;;;6.32;2.08;;;;;;;20.27;48.19;103068.00;5000864;28;20050;-32
2023/05/27 05:13:16;;;;;;;4.40;1.70;;;;;;;20.30;48.10;103070.44;5000080;28;20381;-32
2023/05/27 05:15:43;;;;;;;5.40;1.90;;;;;;;20.31;47.94;103058.72;5001841;28;20076;-33
2023/05/27 05:18:11;;;;;;;4.05;2.03;;;;;;;20.32;48.08;103055.88;4998358;28;20053;-32
2023/05/27 05:20:38;;;;;;;3.75;1.65;;;;;;;20.33;47.48;103054.91;5002365;28;20112;-32
2023/05/27 05:23:06;;;;;;;5.15;1.80;;;;;;;20.35;47.82;103061.06;5000767;28;20054;-32
2023/05/27 05:25:37;;;;;;;4.00;1.73;;;;;;;20.37;47.89;103053.69;5006444;28;20495;-32
2023/05/27 05:28:05;;;;;;;4.20;1.85;;;;;;;20.40;47.65;103049.94;4999276;28;20054;-36
2023/05/27 05:30:31;;;;;;;4.35;2.10;;;;;;;20.42;47.61;103056.03;4997745;28;20065;-32
2023/05/27 05:32:59;;;;;;;4.60;1.88;;;;;;;20.43;47.27;103052.41;5003995;28;20132;-33
2023/05/27 05:35:26;;;;;;;5.90;2.08;;;;;;;20.44;47.23;103048.72;5007138;28;20045;-32
2023/05/27 05:37:52;;;;;;;4.63;1.70;;;;;;;20.45;47.44;103045.91;5008665;28;20058;-32
2023/05/27 05:40:19;;;;;;;4.63;1.90;;;;;;;20.48;47.22;103043.97;4999547;28;20754;-33
2023/05/27 05:42:46;;;;;;;4.57;1.85;;;;;;;20.50;47.24;103042.88;5002986;28;20049;-32
2023/05/27 05:45:12;;;;;;;2.03;1.52;;;;;;;20.51;47.08;103047.31;4998059;28;20049;-32
2023/05/27 05:47:39;;;;;;;3.42;1.60;;;;;;;20.53;47.13;103045.34;5007382;28;20104;-32
2023/05/27 05:50:06;;;;;;;4.70;1.70;;;;;;;20.55;47.34;103040.72;5000559;28;20054;-32
2023/05/27 05:52:32;;;;;;;3.10;1.52;;;;;;;20.57;46.85;103037.91;5006679;28;20108;-32
2023/05/27 05:54:59;;;;;;;4.47;2.25;;;;;;;20.58;47.07;103045.00;5003892;28;20133;-33
2023/05/27 05:57:26;;;;;;;5.78;1.95;;;;;;;20.60;47.44;103037.69;5002376;28;20078;-32
2023/05/27 05:59:53;;;;;;;3.13;1.83;;;;;;;20.61;46.74;103039.38;4998886;28;20421;-32
2023/05/27 06:02:19;;;;;;;2.85;1.48;;;;;;;20.61;46.64;103040.25;5004836;28;20099;-33
2023/05/27 06:04:46;;;;;;;3.45;1.63;;;;;;;20.61;46.64;103037.53;5003086;28;20508;-32
2023/05/27 06:07:13;;;;;;;3.60;1.50;;;;;;;20.62;47.08;103035.72;5005865;28;20124;-33
2023/05/27 06:09:40;;;;;;;3.75;1.60;;;;;;;20.62;46.90;103025.81;4999796;28;20054;-32
2023/05/27 06:12:07;;;;;;;4.65;1.75;;;;;;;20.62;46.93;103017.72;5004222;28;20139;-33
2023/05/27 06:14:33;;;;;;;4.00;1.77;;;;;;;20.62;46.22;103024.94;4999793;28;20097;-32
2023/05/27 06:17:00;;;;;;;2.40;1.60;;;;;;;20.63;46.52;103018.59;4996291;28;20097;-32
2023/05/27 06:19:27;;;;;;;3.58;2.05;;;;;;;20.61;47.04;103018.69;5005614;28;20148;-33
2023/05/27 06:21:53;;;;;;;3.75;1.75;;;;;;;20.61;46.62;103018.69;4993815;28;20393;-32
2023/05/27 06:24:20;;;;;;;3.63;1.67;;;;;;;20.61;46.52;103010.59;4996315;28;20045;-33
2023/05/27 06:26:46;;;;;;;5.72;2.17;;;;;;;20.61;47.06;103010.59;4993101;28;20062;-33
2023/05/27 06:29:13;;;;;;;5.55;2.03;;;;;;;20.61;46.78;103007.91;4994535;28;20511;-32
2023/05/27 06:31:40;;;;;;;4.10;1.63;;;;;;;20.60;46.58;103003.50;5001934;28;20108;-32
2023/05/27 06:34:06;;;;;;;4.35;1.67;;;;;;;20.61;46.45;102998.97;4996748;28;20060;-32
2023/05/27 06:36:33;;;;;;;7.25;1.83;;;;;;;20.61;46.51;102999.81;4997988;28;20710;-32
2023/05/27 06:39:00;;;;;;;5.18;1.80;;;;;;;20.61;46.32;102986.34;4996910;28;20350;-33
2023/05/27 06:41:27;;;;;;;4.65;1.95;;;;;;;20.61;46.64;102991.75;4999928;28;20124;-32
2023/05/27 06:43:53;;;;;;;3.03;1.52;;;;;;;20.61;46.44;102997.13;5001676;28;20050;-32
2023/05/27 06:46:20;;;;;;;6.63;1.95;;;;;;;20.62;46.29;102987.22;4999033;28;20438;-33
2023/05/27 06:48:47;;;;;;;5.20;1.92;;;;;;;20.61;46.42;102988.19;4997534;28;20414;-33
2023/05/27 06:51:15;;;;;;;6.00;2.30;;;;;;;20.60;46.06;102981.94;4998395;28;20050;-32
2023/05/27 06:53:41;;;;;;;9.02;2.20;;;;;;;20.60;46.57;102987.34;4998991;28;20058;-32
2023/05/27 06:56:08;;;;;;;5.00;1.73;;;;;;;20.60;46.60;102981.09;5003165;28;20777;-32
2023/05/27 06:58:35;;;;;;;4.38;1.63;;;;;;;20.59;46.18;102971.31;4994540;28;20050;-33
2023/05/27 07:01:02;;;;;;;4.70;2.00;;;;;;;20.58;46.15;102983.91;5003441;28;20150;-33
2023/05/27 07:03:28;;;;;;;5.40;2.08;;;;;;;20.58;46.55;102977.66;4998515;28;20053;-33
2023/05/27 07:05:55;;;;;;;4.43;1.88;;;;;;;20.56;46.18;102979.63;5003016;28;20084;-32
2023/05/27 07:08:22;;;;;;;3.30;1.80;;;;;;;20.56;46.18;102985.84;4995268;28;20050;-32
2023/05/27 07:10:48;;;;;;;3.63;1.90;;;;;;;20.56;46.26;102990.41;5002884;28;20046;-32
2023/05/27 07:13:15;;;;;;;5.97;2.28;;;;;;;20.53;46.29;102983.41;4997266;28;20050;-32
2023/05/27 07:15:42;;;;;;;5.53;2.15;;;;;;;20.53;46.11;102983.41;5002770;28;20298;-32
2023/05/27 07:18:09;;;;;;;7.35;2.55;;;;;;;20.53;46.56;102979.84;4997373;28;20395;-32
2023/05/27 07:20:36;;;;;;;5.20;1.95;;;;;;;20.52;46.67;102970.91;5008199;28;20426;-32
2023/05/27 07:23:02;;;;;;;5.53;2.20;;;;;;;20.53;46.77;102969.06;5006331;28;20124;-32
2023/05/27 07:25:29;;;;;;;5.05;1.95;;;;;;;20.52;46.67;102970.06;5006734;28;20101;-32
2023/05/27 07:27:56;;;;;;;5.07;2.60;;;;;;;20.53;46.52;102967.22;5002766;28;20081;-32
2023/05/27 07:30:22;;;;;;;5.80;2.53;;;;;;;20.54;46.21;102966.25;5001954;28;20057;-32
2023/05/27 07:32:50;;;;;;;5.32;2.30;;;;;;;20.54;46.35;102966.25;5005396;28;20081;-32
2023/05/27 07:35:17;;;;;;;5.65;2.92;;;;;;;20.55;46.30;102970.69;4999677;28;20053;-32
2023/05/27 07:37:43;;;;;;;5.43;2.53;;;;;;;20.57;46.82;102968.72;4999392;28;20050;-32
2023/05/27 07:40:10;;;;;;;5.88;3.10;;;;;;;20.58;46.23;102962.38;4996882;28;20351;-32
2023/05/27 07:42:37;;;;;;;8.88;3.17;;;;;;;20.60;46.61;102963.09;4996497;28;20042;-32
2023/05/27 07:45:05;;;;;;;7.25;3.13;;;;;;;20.61;46.59;102961.25;5005924;28;20054;-32
2023/05/27 07:47:31;;;;;;;12.43;4.55;;;;;;;20.61;46.19;102967.50;5003216;28;20103;-32
2023/05/27 07:49:58;;;;;;;6.95;2.97;;;;;;;20.61;46.49;102956.72;5003268;28;20172;-32
2023/05/27 07:52:25;;;;;;;8.57;4.22;;;;;;;20.64;46.29;102948.41;5005315;28;20430;-32
2023/05/27 07:54:51;;;;;;;8.73;4.22;;;;;;;20.64;46.36;102943.00;5001779;28;20058;-33
2023/05/27 07:57:21;;;;;;;12.07;5.68;;;;;;;20.67;46.37;102941.94;5005425;28;20152;-32
2023/05/27 07:59:48;;;;;;;13.05;7.22;;;;;;;20.68;46.16;102938.25;4998525;28;20060;-33
2023/05/27 08:02:14;;;;;;;15.13;7.68;;;;;;;20.69;46.15;102934.56;4998697;28;20373;-33
2023/05/27 08:04:43;;;;;;;17.58;9.13;;;;;;;20.71;46.12;102935.31;5033708;28;20092;-33
2023/05/27 08:07:10;;;;;;;16.50;9.52;;;;;;;20.72;45.86;102928.09;5001457;28;20097;-32
2023/05/27 08:09:37;;;;;;;16.77;9.15;;;;;;;20.73;46.24;102932.50;5004092;28;20403;-32
2023/05/27 08:12:06;;;;;;;20.83;10.10;;;;;;;20.74;45.86;102923.41;5001096;28;20050;-33
2023/05/27 08:14:33;;;;;;;20.02;10.63;;;;;;;20.75;46.38;102927.84;5001641;28;20050;-32
2023/05/27 08:17:00;;;;;;;19.88;10.52;;;;;;;20.75;45.76;102923.31;5011102;28;20062;-33
2023/05/27 08:19:28;;;;;;;19.08;9.85;;;;;;;20.78;46.02;102922.19;5002768;28;20129;-32
2023/05/27 08:21:56;;;;;;;21.05;10.88;;;;;;;20.77;46.00;102910.56;5000899;28;20341;-32
2023/05/27 08:24:24;;;;;;;18.67;10.43;;;;;;;20.80;46.13;102907.63;5003638;28;20054;-32
2023/05/27 08:26:50;;;;;;;19.95;10.57;;;;;;;20.81;46.24;102909.34;4999667;28;20401;-33
2023/05/27 08:29:17;;;;;;;20.13;10.38;;;;;;;20.82;45.61;102907.50;4998805;28;20464;-33
2023/05/27 08:31:44;;;;;;;19.95;9.88;;;;;;;20.83;45.67;102907.41;4996118;28;20508;-32
2023/05/27 08:34:10;;;;;;;20.42;9.93;;;;;;;20.84;45.92;102897.47;5004429;28;20050;-33
2023/05/27 08:36:37;;;;;;;18.70;9.88;;;;;;;20.86;45.89;102900.88;5006242;28;20060;-33
2023/05/27 08:39:05;;;;;;;21.48;9.25;;;;;;;20.87;45.76;102899.94;5004039;28;20077;-32
2023/05/27 08:41:32;;;;;;;20.58;9.85;;;;;;;20.87;45.08;102891.84;5000530;28;20048;-32
2023/05/27 08:44:00;;;;;;;18.75;9.07;;;;;;;20.87;45.52;102892.69;4998799;28;20070;-33
2023/05/27 08:46:48;;;;;;;18.33;8.60;;;;;;;20.89;45.01;102890.72;4998937;28;20045;-33
2023/05/27 08:49:18;;;;;;;20.27;8.65;;;;;;;20.91;45.28;102885.22;5005545;28;20751;-32
2023/05/27 08:51:46;;;;;;;12.80;7.10;;;;;;;20.92;45.23;102879.69;5003677;28;20081;-32
2023/05/27 08:54:12;;;;;;;16.08;7.80;;;;;;;20.92;45.65;102879.69;5003027;28;20058;-33
2023/05/27 08:56:40;;;;;;;17.77;7.90;;;;;;;20.94;45.32;102866.97;5003199;28;20069;-33
2023/05/27 08:59:07;;;;;;;17.70;7.78;;;;;;;20.95;45.17;102862.44;4999672;28;20060;-32
2023/05/27 09:01:35;;;;;;;16.33;6.95;;;;;;;20.98;45.10;102855.91;5000539;28;20054;-32
2023/05/27 09:04:02;;;;;;;14.85;7.20;;;;;;;21.00;45.29;102859.34;5001645;28;20328;-33
2023/05/27 09:06:29;;;;;;;17.85;7.13;;;;;;;21.02;44.87;102862.78;5002210;28;20042;-33
2023/05/27 09:08:56;;;;;;;16.52;6.93;;;;;;;21.04;45.00;102858.13;5002411;28;20066;-33
2023/05/27 09:11:25;;;;;;;13.75;6.35;;;;;;;21.07;44.97;102855.19;4998562;28;20058;-32
2023/05/27 09:13:55;;;;;;;13.15;6.63;;;;;;;21.08;44.80;102851.50;5027884;28;20050;-33
2023/05/27 09:16:23;;;;;;;15.18;6.32;;;;;;;21.10;44.80;102855.75;5002656;28;20082;-32
2023/05/27 09:18:49;;;;;;;18.35;6.28;;;;;;;21.13;44.45;102846.59;5002371;28;20060;-32
2023/05/27 09:21:17;;;;;;;18.15;7.05;;;;;;;21.15;44.29;102848.19;5002127;28;20054;-33
2023/05/27 09:23:44;;;;;;;18.73;5.97;;;;;;;21.19;44.33;102838.84;5004025;28;20062;-33
2023/05/27 09:26:11;;;;;;;15.05;5.40;;;;;;;21.22;43.87;102843.13;5001718;28;20077;-32
2023/05/27 09:28:39;;;;;;;16.02;6.40;;;;;;;21.28;44.31;102839.06;4998731;28;20054;-32
2023/05/27 09:31:08;;;;;;;14.50;5.53;;;;;;;21.31;43.78;102841.53;5000021;28;20104;-32
2023/05/27 09:33:38;;;;;;;16.48;5.22;;;;;;;21.36;44.01;102833.94;4997236;28;20049;-32
2023/05/27 09:36:06;;;;;;;10.25;4.57;;;;;;;21.40;43.84;102830.84;4998501;28;20041;-33
2023/05/27 09:38:35;;;;;;;11.60;4.85;;;;;;;21.44;43.86;102836.84;4997566;28;20061;-32
2023/05/27 09:41:02;;;;;;;15.30;5.85;;;;;;;21.49;43.55;102831.06;5001230;28;20358;-33
2023/05/27 09:43:29;;;;;;;14.57;4.78;;;;;;;21.53;43.26;102835.22;4997376;28;20133;-32
2023/05/27 09:46:07;;;;;;;13.15;4.68;;;;;;;21.57;43.06;102837.53;4995980;28;20058;-33
2023/05/27 09:48:35;;;;;;;14.35;5.22;;;;;;;21.61;43.29;102830.91;5002531;28;20057;-34
2023/05/27 09:51:03;;;;;;;13.18;5.10;;;;;;;21.65;43.23;102832.34;5005448;28;20050;-33
2023/05/27 09:53:31;;;;;;;14.52;5.15;;;;;;;21.69;43.26;102828.41;5004892;28;20568;-33
2023/05/27 09:55:57;;;;;;;14.05;5.00;;;;;;;21.73;43.21;102829.00;5030867;28;20108;-33
2023/05/27 09:58:24;;;;;;;14.93;4.68;;;;;;;21.75;43.07;102818.94;5004757;28;20081;-32
2023/05/27 10:00:52;;;;;;;14.57;4.78;;;;;;;21.79;43.21;102820.41;5033382;28;20058;-33
2023/05/27 10:03:21;;;;;;;10.00;4.47;;;;;;;21.83;43.08;102820.97;5002678;28;20085;-33
2023/05/27 10:05:50;;;;;;;17.23;4.30;;;;;;;21.85;42.93;102805.50;4999235;28;20077;-34
2023/05/27 10:08:18;;;;;;;16.25;5.78;;;;;;;21.90;42.70;102809.53;5002499;28;20085;-33
2023/05/27 10:10:53;;;;;;;19.48;6.10;;;;;;;21.92;42.83;102804.84;5001540;28;20058;-33
2023/05/27 10:13:21;;;;;;;17.70;7.43;;;;;;;21.95;42.93;102801.06;5003647;28;20057;-33
2023/05/27 10:15:51;;;;;;;16.35;7.20;;;;;;;21.98;42.68;102797.22;5006213;28;20156;-34
2023/05/27 10:18:29;;;;;;;22.13;8.38;;;;;;;22.00;42.59;102801.50;4997411;28;20082;-33
2023/05/27 10:20:58;;;;;;;17.48;6.78;;;;;;;22.03;42.30;102793.16;5003260;28;20116;-33
2023/05/27 10:23:26;;;;;;;16.60;6.85;;;;;;;22.06;42.62;102797.41;5000631;28;20520;-33
2023/05/27 10:25:55;;;;;;;20.52;7.78;;;;;;;22.08;42.62;102787.34;5002123;28;20173;-33
2023/05/27 10:28:32;;;;;;;16.90;6.90;;;;;;;22.10;42.60;102790.75;4995598;28;20426;-33
2023/05/27 10:31:05;;;;;;;16.25;6.65;;;;;;;22.12;42.57;102786.94;4996056;28;20054;-33
2023/05/27 10:33:44;;;;;;;18.90;6.60;;;;;;;22.14;42.53;102778.72;4999630;28;20058;-33
2023/05/27 10:36:15;;;;;;;15.40;5.93;;;;;;;22.17;42.23;102781.16;4995290;28;20054;-33
2023/05/27 10:38:43;;;;;;;12.25;5.40;;;;;;;22.19;42.63;102784.56;5001526;28;20061;-33
2023/05/27 10:41:10;;;;;;;12.27;5.70;;;;;;;22.22;42.50;102776.22;4997509;28;20054;-34
2023/05/27 10:43:37;;;;;;;12.32;5.70;;;;;;;22.24;42.29;102776.09;4999895;28;20128;-34
2023/05/27 10:46:07;;;;;;;12.00;5.53;;;;;;;22.26;42.00;102768.69;4999800;28;20050;-33
2023/05/27 10:48:35;;;;;;;18.60;6.47;;;;;;;22.28;42.18;102766.72;5002530;28;20117;-33
2023/05/27 10:51:01;;;;;;;23.20;6.57;;;;;;;22.30;42.01;102764.72;4999467;28;20105;-33
2023/05/27 10:53:29;;;;;;;20.45;7.32;;;;;;;22.32;42.00;102751.97;4999001;28;20414;-33
2023/05/27 10:56:00;;;;;;;24.73;6.97;;;;;;;22.35;41.56;102743.56;5001143;28;20057;-34
2023/05/27 10:58:27;;;;;;;21.85;7.28;;;;;;;22.37;41.76;102738.88;5001143;28;20046;-33
2023/05/27 11:00:56;;;;;;;24.42;6.95;;;;;;;22.38;41.84;102737.88;5002611;28;20078;-33
2023/05/27 11:03:25;;;;;;;25.15;7.07;;;;;;;22.40;41.63;102744.03;4999566;28;20440;-34
2023/05/27 11:05:58;;;;;;;29.25;7.53;;;;;;;22.42;41.86;102736.63;5003742;28;20057;-33
2023/05/27 11:08:25;;;;;;;24.50;7.43;;;;;;;22.43;41.99;102727.50;5006065;28;20050;-33
2023/05/27 11:11:07;;;;;;;23.50;5.90;;;;;;;22.46;41.82;102724.53;5000394;28;20620;-33
2023/05/27 11:13:42;;;;;;;19.08;5.93;;;;;;;22.48;41.81;102719.03;5001280;28;20080;-33
2023/05/27 11:16:14;;;;;;;27.23;7.82;;;;;;;22.50;41.74;102722.44;5004015;28;20066;-33
2023/05/27 11:18:44;;;;;;;18.80;5.90;;;;;;;22.51;41.95;102710.63;5001360;28;20049;-33
2023/05/27 11:21:12;;;;;;;17.50;5.53;;;;;;;22.52;41.49;102709.66;5005875;28;20437;-33
2023/05/27 11:23:48;;;;;;;19.33;6.00;;;;;;;22.54;41.57;102715.75;5001363;28;20050;-33
2023/05/27 11:26:23;;;;;;;21.05;6.57;;;;;;;22.55;41.29;102702.13;5000245;28;20168;-33
2023/05/27 11:28:50;;;;;;;18.92;5.95;;;;;;;22.58;41.61;102706.38;4998833;28;20050;-33